createdAt,value
2016-05-26T00:00:06.027Z,14.3
2016-05-26T00:00:16.074Z,14.3
2016-05-26T00:00:26.074Z,14.3
2016-05-26T00:00:36.043Z,14.3
2016-05-26T00:00:46.059Z,14.2
2016-05-26T00:00:56.061Z,14.2
2016-05-26T00:01:06.061Z,14.3
2016-05-26T00:01:16.076Z,14.3
2016-05-26T00:01:26.076Z,14.3
2016-05-26T00:01:36.092Z,14.4
2016-05-26T00:01:46.092Z,14.3
2016-05-26T00:01:56.110Z,14.2
2016-05-26T00:02:06.110Z,14.2
2016-05-26T00:02:16.110Z,14.3
2016-05-26T00:02:26.126Z,14.3
2016-05-26T00:02:36.126Z,14.3
2016-05-26T00:02:46.126Z,14.2
2016-05-26T00:02:56.144Z,14.3
2016-05-26T00:03:06.144Z,14.2
2016-05-26T00:03:16.144Z,14.3
2016-05-26T00:03:26.159Z,14.2
2016-05-26T00:03:36.159Z,14.3
2016-05-26T00:03:46.175Z,14.3
2016-05-26T00:03:56.179Z,14.3
2016-05-26T00:04:06.195Z,14.3
2016-05-26T00:04:16.195Z,14.3
2016-05-26T00:04:26.195Z,14.3
2016-05-26T00:04:36.210Z,14.3
2016-05-26T00:04:46.210Z,14.3
2016-05-26T00:04:56.228Z,14.3
2016-05-26T00:05:06.228Z,14.3
2016-05-26T00:05:16.259Z,14.3
2016-05-26T00:05:26.228Z,14.3
2016-05-26T00:05:36.243Z,14.3
2016-05-26T00:05:46.243Z,14.3
2016-05-26T00:05:56.262Z,14.4
2016-05-26T00:06:06.262Z,14.3
2016-05-26T00:06:16.278Z,14.4
2016-05-26T00:06:26.278Z,14.3
2016-05-26T00:06:36.278Z,14.4
2016-05-26T00:06:46.293Z,14.3
2016-05-26T00:06:56.295Z,14.3
2016-05-26T00:07:06.311Z,14.3
2016-05-26T00:07:16.311Z,14.3
2016-05-26T00:07:26.311Z,14.3
2016-05-26T00:07:36.327Z,14.3
2016-05-26T00:07:46.327Z,14.3
2016-05-26T00:07:56.345Z,14.3
2016-05-26T00:08:06.345Z,14.3
2016-05-26T00:08:16.345Z,14.3
2016-05-26T00:08:26.361Z,14.3
2016-05-26T00:08:36.361Z,14.3
2016-05-26T00:08:46.392Z,14.3
2016-05-26T00:08:56.379Z,14.3
2016-05-26T00:09:06.379Z,14.2
2016-05-26T00:09:16.395Z,14.3
2016-05-26T00:09:26.411Z,14.3
2016-05-26T00:09:36.411Z,14.3
2016-05-26T00:09:46.442Z,14.2
2016-05-26T00:09:56.413Z,14.2
2016-05-26T00:10:06.428Z,14.3
2016-05-26T00:10:16.428Z,14.3
2016-05-26T00:10:26.444Z,14.3
2016-05-26T00:10:36.444Z,14.2
2016-05-26T00:10:46.475Z,14.3
2016-05-26T00:10:56.463Z,14.3
2016-05-26T00:11:06.463Z,14.3
2016-05-26T00:11:16.478Z,14.2
2016-05-26T00:11:26.463Z,14.3
2016-05-26T00:11:36.478Z,14.3
2016-05-26T00:11:46.494Z,14.2
2016-05-26T00:11:56.496Z,14.2
2016-05-26T00:12:06.511Z,14.2
2016-05-26T00:12:16.511Z,14.2
2016-05-26T00:12:26.527Z,14.2
2016-05-26T00:12:36.527Z,14.2
2016-05-26T00:12:46.527Z,14.3
2016-05-26T00:12:56.530Z,14.2
2016-05-26T00:13:06.546Z,14.3
2016-05-26T00:13:16.546Z,14.3
2016-05-26T00:13:26.546Z,14.3
2016-05-26T00:13:36.561Z,14.2
2016-05-26T00:13:46.577Z,14.2
2016-05-26T00:13:56.581Z,14.1
2016-05-26T00:14:06.581Z,14.1
2016-05-26T00:14:16.597Z,14.2
2016-05-26T00:14:26.597Z,14.1
2016-05-26T00:14:36.597Z,14.2
2016-05-26T00:14:46.612Z,14.1
2016-05-26T00:14:56.614Z,14.1
2016-05-26T00:15:06.614Z,14.2
2016-05-26T00:15:16.630Z,14.2
2016-05-26T00:15:26.630Z,14.2
2016-05-26T00:15:36.645Z,14.2
2016-05-26T00:15:46.645Z,14.2
2016-05-26T00:15:56.648Z,14.2
2016-05-26T00:16:06.664Z,14.1
2016-05-26T00:16:16.664Z,14.2
2016-05-26T00:16:26.680Z,14.1
2016-05-26T00:16:36.680Z,14.1
2016-05-26T00:16:46.695Z,14.1
2016-05-26T00:16:56.697Z,14.2
2016-05-26T00:17:06.697Z,14.1
2016-05-26T00:17:16.932Z,14.1
2016-05-26T00:17:26.713Z,14.1
2016-05-26T00:17:36.713Z,14
2016-05-26T00:17:46.729Z,14.1
2016-05-26T00:17:56.732Z,14
2016-05-26T00:18:06.732Z,14
2016-05-26T00:18:16.747Z,14.2
2016-05-26T00:18:26.747Z,14
2016-05-26T00:18:36.763Z,14
2016-05-26T00:18:46.763Z,14
2016-05-26T00:18:56.766Z,14
2016-05-26T00:19:06.781Z,14
2016-05-26T00:19:16.781Z,14.1
2016-05-26T00:19:26.797Z,14
2016-05-26T00:19:36.797Z,14
2016-05-26T00:19:46.797Z,14
2016-05-26T00:19:56.816Z,14.1
2016-05-26T00:20:06.863Z,14.1
2016-05-26T00:20:16.831Z,14.1
2016-05-26T00:20:26.831Z,14.1
2016-05-26T00:20:36.831Z,14
2016-05-26T00:20:46.847Z,14
2016-05-26T00:20:56.849Z,14.1
2016-05-26T00:21:06.865Z,14
2016-05-26T00:21:16.880Z,14.1
2016-05-26T00:21:26.880Z,14.2
2016-05-26T00:21:36.880Z,14
2016-05-26T00:21:46.880Z,14.1
2016-05-26T00:21:56.899Z,14.2
2016-05-26T00:22:06.899Z,14.1
2016-05-26T00:22:16.899Z,14.1
2016-05-26T00:22:26.914Z,14
2016-05-26T00:22:36.930Z,14.1
2016-05-26T00:22:46.914Z,14.1
2016-05-26T00:22:56.933Z,14.1
2016-05-26T00:23:06.933Z,14.2
2016-05-26T00:23:16.949Z,14.1
2016-05-26T00:23:26.949Z,14.1
2016-05-26T00:23:36.964Z,14.1
2016-05-26T00:23:46.964Z,14
2016-05-26T00:23:56.966Z,14
2016-05-26T00:24:06.982Z,14.2
2016-05-26T00:24:16.998Z,14
2016-05-26T00:24:26.998Z,14
2016-05-26T00:24:36.998Z,14.1
2016-05-26T00:24:46.998Z,14.1
2016-05-26T00:24:57.016Z,14.1
2016-05-26T00:25:07.016Z,14.1
2016-05-26T00:25:17.032Z,14
2016-05-26T00:25:27.032Z,14.1
2016-05-26T00:25:37.032Z,14
2016-05-26T00:25:47.047Z,14.1
2016-05-26T00:25:57.049Z,14
2016-05-26T00:26:07.049Z,14
2016-05-26T00:26:17.065Z,14.1
2016-05-26T00:26:27.081Z,14
2016-05-26T00:26:37.081Z,14
2016-05-26T00:26:47.096Z,14
2016-05-26T00:26:57.084Z,14.1
2016-05-26T00:27:07.099Z,14
2016-05-26T00:27:17.115Z,13.9
2016-05-26T00:27:27.115Z,14.1
2016-05-26T00:27:37.115Z,14
2016-05-26T00:27:47.131Z,14
2016-05-26T00:27:57.134Z,14
2016-05-26T00:28:07.134Z,13.9
2016-05-26T00:28:17.149Z,13.9
2016-05-26T00:28:27.149Z,14
2016-05-26T00:28:37.149Z,13.9
2016-05-26T00:28:47.149Z,13.9
2016-05-26T00:28:57.167Z,13.9
2016-05-26T00:29:07.167Z,14
2016-05-26T00:29:17.182Z,13.9
2016-05-26T00:29:27.214Z,14
2016-05-26T00:29:37.198Z,14
2016-05-26T00:29:47.198Z,14.1
2016-05-26T00:29:57.232Z,14
2016-05-26T00:30:07.217Z,13.9
2016-05-26T00:30:17.217Z,13.9
2016-05-26T00:30:27.217Z,13.9
2016-05-26T00:30:37.232Z,13.9
2016-05-26T00:30:47.232Z,13.9
2016-05-26T00:30:57.251Z,13.9
2016-05-26T00:31:07.251Z,13.9
2016-05-26T00:31:17.267Z,14
2016-05-26T00:31:27.267Z,14.1
2016-05-26T00:31:37.267Z,14.1
2016-05-26T00:31:47.282Z,13.9
2016-05-26T00:31:57.300Z,13.9
2016-05-26T00:32:07.331Z,13.9
2016-05-26T00:32:17.300Z,14
2016-05-26T00:32:27.300Z,13.9
2016-05-26T00:32:37.300Z,13.9
2016-05-26T00:32:47.315Z,13.9
2016-05-26T00:32:57.818Z,13.9
2016-05-26T00:33:07.365Z,13.9
2016-05-26T00:33:17.334Z,13.9
2016-05-26T00:33:27.334Z,13.9
2016-05-26T00:33:37.350Z,13.8
2016-05-26T00:33:47.350Z,13.9
2016-05-26T00:33:57.368Z,13.8
2016-05-26T00:34:07.368Z,14
2016-05-26T00:34:17.384Z,14
2016-05-26T00:34:27.384Z,13.9
2016-05-26T00:34:37.384Z,13.8
2016-05-26T00:34:47.384Z,13.9
2016-05-26T00:34:57.403Z,13.8
2016-05-26T00:35:07.403Z,13.8
2016-05-26T00:35:17.418Z,13.8
2016-05-26T00:35:27.418Z,13.8
2016-05-26T00:35:37.434Z,13.8
2016-05-26T00:35:47.434Z,13.8
2016-05-26T00:35:57.452Z,13.8
2016-05-26T00:36:07.452Z,13.9
2016-05-26T00:36:17.452Z,13.8
2016-05-26T00:36:27.468Z,13.8
2016-05-26T00:36:37.468Z,13.9
2016-05-26T00:36:47.468Z,14
2016-05-26T00:36:57.487Z,14
2016-05-26T00:37:07.487Z,13.9
2016-05-26T00:37:17.534Z,13.9
2016-05-26T00:37:27.502Z,13.9
2016-05-26T00:37:37.502Z,13.8
2016-05-26T00:37:47.534Z,13.9
2016-05-26T00:37:57.536Z,13.8
2016-05-26T00:38:07.536Z,13.9
2016-05-26T00:38:17.536Z,13.8
2016-05-26T00:38:27.536Z,13.8
2016-05-26T00:38:37.567Z,13.8
2016-05-26T00:38:47.551Z,13.9
2016-05-26T00:38:57.570Z,13.9
2016-05-26T00:39:07.570Z,13.9
2016-05-26T00:39:17.632Z,13.9
2016-05-26T00:39:27.570Z,13.9
2016-05-26T00:39:37.585Z,13.9
2016-05-26T00:39:47.601Z,13.8
2016-05-26T00:39:57.603Z,13.8
2016-05-26T00:40:07.603Z,13.9
2016-05-26T00:40:17.619Z,14
2016-05-26T00:40:27.619Z,13.9
2016-05-26T00:40:37.619Z,13.8
2016-05-26T00:40:47.634Z,13.9
2016-05-26T00:40:57.637Z,13.8
2016-05-26T00:41:07.637Z,13.9
2016-05-26T00:41:17.653Z,13.9
2016-05-26T00:41:27.653Z,13.9
2016-05-26T00:41:37.669Z,13.9
2016-05-26T00:41:47.669Z,13.9
2016-05-26T00:41:57.687Z,13.9
2016-05-26T00:42:07.687Z,13.9
2016-05-26T00:42:17.703Z,13.9
2016-05-26T00:42:27.703Z,13.9
2016-05-26T00:42:37.703Z,13.8
2016-05-26T00:42:47.718Z,13.8
2016-05-26T00:42:57.720Z,13.8
2016-05-26T00:43:07.720Z,13.9
2016-05-26T00:43:17.736Z,13.9
2016-05-26T00:43:27.736Z,13.9
2016-05-26T00:43:37.736Z,13.9
2016-05-26T00:43:47.752Z,13.9
2016-05-26T00:43:57.755Z,14
2016-05-26T00:44:07.755Z,13.8
2016-05-26T00:44:17.770Z,13.9
2016-05-26T00:44:27.770Z,13.9
2016-05-26T00:44:37.786Z,14.1
2016-05-26T00:44:47.786Z,14
2016-05-26T00:44:57.788Z,14
2016-05-26T00:45:07.804Z,14
2016-05-26T00:45:17.804Z,14
2016-05-26T00:45:27.804Z,13.9
2016-05-26T00:45:37.819Z,13.9
2016-05-26T00:45:47.819Z,13.9
2016-05-26T00:45:57.838Z,13.8
2016-05-26T00:46:07.838Z,13.8
2016-05-26T00:46:17.853Z,13.9
2016-05-26T00:46:27.932Z,13.9
2016-05-26T00:46:37.853Z,13.8
2016-05-26T00:46:47.869Z,13.7
2016-05-26T00:46:57.872Z,13.9
2016-05-26T00:47:07.872Z,13.9
2016-05-26T00:47:17.888Z,13.8
2016-05-26T00:47:28.106Z,13.9
2016-05-26T00:47:37.903Z,13.9
2016-05-26T00:47:48.200Z,13.8
2016-05-26T00:47:57.906Z,13.8
2016-05-26T00:48:07.922Z,13.8
2016-05-26T00:48:17.922Z,13.9
2016-05-26T00:48:27.953Z,13.9
2016-05-26T00:48:37.938Z,13.9
2016-05-26T00:48:47.953Z,13.8
2016-05-26T00:48:57.955Z,13.9
2016-05-26T00:49:08.002Z,13.8
2016-05-26T00:49:17.971Z,13.9
2016-05-26T00:49:27.971Z,13.8
2016-05-26T00:49:37.971Z,13.8
2016-05-26T00:49:47.986Z,13.8
2016-05-26T00:49:58.021Z,13.8
2016-05-26T00:50:08.005Z,13.8
2016-05-26T00:50:18.005Z,13.8
2016-05-26T00:50:28.068Z,13.9
2016-05-26T00:50:38.021Z,13.9
2016-05-26T00:50:48.021Z,13.9
2016-05-26T00:50:58.039Z,13.9
2016-05-26T00:51:08.039Z,13.9
2016-05-26T00:51:18.039Z,13.9
2016-05-26T00:51:28.055Z,14
2016-05-26T00:51:38.055Z,13.9
2016-05-26T00:51:48.055Z,14.1
2016-05-26T00:51:58.073Z,14.1
2016-05-26T00:52:08.073Z,13.9
2016-05-26T00:52:18.088Z,14
2016-05-26T00:52:28.088Z,13.9
2016-05-26T00:52:38.104Z,14
2016-05-26T00:52:48.104Z,13.9
2016-05-26T00:52:58.107Z,13.9
2016-05-26T00:53:08.122Z,13.8
2016-05-26T00:53:18.122Z,13.9
2016-05-26T00:53:28.122Z,13.8
2016-05-26T00:53:38.138Z,13.8
2016-05-26T00:53:48.138Z,13.9
2016-05-26T00:53:58.141Z,14
2016-05-26T00:54:08.188Z,13.9
2016-05-26T00:54:18.188Z,13.8
2016-05-26T00:54:28.172Z,13.9
2016-05-26T00:54:38.172Z,13.9
2016-05-26T00:54:48.172Z,13.9
2016-05-26T00:54:58.268Z,13.9
2016-05-26T00:55:08.206Z,13.9
2016-05-26T00:55:18.206Z,13.8
2016-05-26T00:55:28.237Z,13.8
2016-05-26T00:55:38.221Z,13.8
2016-05-26T00:55:48.221Z,13.8
2016-05-26T00:55:58.224Z,13.8
2016-05-26T00:56:08.224Z,13.8
2016-05-26T00:56:18.255Z,13.8
2016-05-26T00:56:28.240Z,13.8
2016-05-26T00:56:38.255Z,13.8
2016-05-26T00:56:48.255Z,13.8
2016-05-26T00:56:58.274Z,13.8
2016-05-26T00:57:08.274Z,13.8
2016-05-26T00:57:18.274Z,13.9
2016-05-26T00:57:28.290Z,14
2016-05-26T00:57:38.290Z,13.9
2016-05-26T00:57:48.305Z,13.9
2016-05-26T00:57:58.308Z,13.9
2016-05-26T00:58:08.324Z,13.9
2016-05-26T00:58:18.340Z,14
2016-05-26T00:58:28.324Z,14
2016-05-26T00:58:38.340Z,14
2016-05-26T00:58:48.340Z,13.9
2016-05-26T00:58:58.342Z,14
2016-05-26T00:59:08.357Z,13.9
2016-05-26T00:59:18.357Z,13.9
2016-05-26T00:59:28.404Z,13.9
2016-05-26T00:59:38.404Z,14
2016-05-26T00:59:48.373Z,13.9
2016-05-26T00:59:58.407Z,13.9
2016-05-26T01:00:08.391Z,13.9
2016-05-26T01:00:18.391Z,14
2016-05-26T01:00:28.407Z,13.9
2016-05-26T01:00:38.407Z,13.9
2016-05-26T01:00:48.423Z,13.8
2016-05-26T01:00:58.441Z,13.8
2016-05-26T01:01:08.441Z,13.8
2016-05-26T01:01:18.441Z,13.8
2016-05-26T01:01:28.457Z,13.8
2016-05-26T01:01:38.441Z,13.8
2016-05-26T01:01:48.457Z,13.8
2016-05-26T01:01:58.459Z,13.8
2016-05-26T01:02:08.475Z,13.9
2016-05-26T01:02:18.475Z,13.7
2016-05-26T01:02:28.490Z,13.8
2016-05-26T01:02:38.490Z,13.8
2016-05-26T01:02:48.912Z,13.8
2016-05-26T01:02:58.743Z,13.9
2016-05-26T01:03:08.509Z,13.9
2016-05-26T01:03:18.509Z,13.8
2016-05-26T01:03:28.665Z,13.8
2016-05-26T01:03:38.915Z,13.8
2016-05-26T01:03:48.556Z,13.7
2016-05-26T01:03:58.543Z,13.9
2016-05-26T01:04:08.543Z,13.9
2016-05-26T01:04:18.559Z,13.8
2016-05-26T01:04:28.559Z,13.8
2016-05-26T01:04:38.559Z,13.8
2016-05-26T01:04:48.590Z,13.9
2016-05-26T01:04:58.577Z,13.8
2016-05-26T01:05:08.593Z,13.8
2016-05-26T01:05:18.593Z,13.8
2016-05-26T01:05:28.593Z,13.9
2016-05-26T01:05:38.609Z,13.8
2016-05-26T01:05:48.609Z,13.8
2016-05-26T01:05:58.626Z,13.8
2016-05-26T01:06:08.626Z,13.8
2016-05-26T01:06:18.626Z,13.8
2016-05-26T01:06:28.642Z,13.8
2016-05-26T01:06:38.642Z,13.8
2016-05-26T01:06:48.657Z,13.8
2016-05-26T01:06:58.660Z,13.8
2016-05-26T01:07:08.660Z,13.8
2016-05-26T01:07:18.676Z,13.8
2016-05-26T01:07:28.676Z,13.8
2016-05-26T01:07:38.676Z,13.8
2016-05-26T01:07:48.692Z,13.8
2016-05-26T01:07:58.709Z,13.8
2016-05-26T01:08:08.709Z,13.8
2016-05-26T01:08:18.709Z,13.8
2016-05-26T01:08:28.741Z,13.8
2016-05-26T01:08:38.725Z,13.8
2016-05-26T01:08:48.725Z,13.8
2016-05-26T01:08:58.728Z,13.7
2016-05-26T01:09:08.744Z,13.8
2016-05-26T01:09:18.744Z,13.8
2016-05-26T01:09:28.759Z,13.7
2016-05-26T01:09:38.759Z,13.7
2016-05-26T01:09:48.775Z,13.7
2016-05-26T01:09:58.778Z,13.7
2016-05-26T01:10:08.793Z,13.7
2016-05-26T01:10:18.793Z,13.8
2016-05-26T01:10:28.793Z,13.7
2016-05-26T01:10:38.793Z,13.7
2016-05-26T01:10:48.809Z,13.7
2016-05-26T01:10:58.811Z,13.7
2016-05-26T01:11:08.827Z,13.7
2016-05-26T01:11:18.842Z,13.7
2016-05-26T01:11:28.842Z,13.7
2016-05-26T01:11:38.842Z,13.7
2016-05-26T01:11:48.842Z,13.6
2016-05-26T01:11:58.862Z,13.7
2016-05-26T01:12:08.862Z,13.6
2016-05-26T01:12:18.862Z,13.7
2016-05-26T01:12:28.878Z,13.6
2016-05-26T01:12:38.878Z,13.7
2016-05-26T01:12:48.893Z,13.6
2016-05-26T01:12:58.895Z,13.7
2016-05-26T01:13:08.926Z,13.6
2016-05-26T01:13:18.911Z,13.7
2016-05-26T01:13:28.926Z,13.6
2016-05-26T01:13:38.926Z,13.7
2016-05-26T01:13:48.942Z,13.6
2016-05-26T01:13:58.944Z,13.6
2016-05-26T01:14:08.960Z,13.6
2016-05-26T01:14:18.944Z,13.7
2016-05-26T01:14:28.960Z,13.7
2016-05-26T01:14:38.960Z,13.6
2016-05-26T01:14:48.975Z,13.7
2016-05-26T01:14:58.978Z,13.6
2016-05-26T01:15:08.978Z,13.7
2016-05-26T01:15:18.994Z,13.7
2016-05-26T01:15:28.994Z,13.6
2016-05-26T01:15:38.994Z,13.6
2016-05-26T01:15:49.010Z,13.6
2016-05-26T01:15:59.013Z,13.5
2016-05-26T01:16:09.028Z,13.5
2016-05-26T01:16:19.028Z,13.5
2016-05-26T01:16:29.028Z,13.5
2016-05-26T01:16:39.028Z,13.5
2016-05-26T01:16:49.044Z,13.5
2016-05-26T01:16:59.047Z,13.6
2016-05-26T01:17:09.062Z,13.5
2016-05-26T01:17:19.078Z,13.6
2016-05-26T01:17:29.078Z,13.6
2016-05-26T01:17:39.078Z,13.6
2016-05-26T01:17:49.078Z,13.6
2016-05-26T01:17:59.080Z,13.7
2016-05-26T01:18:09.096Z,13.6
2016-05-26T01:18:19.096Z,13.6
2016-05-26T01:18:29.111Z,13.6
2016-05-26T01:18:39.111Z,13.6
2016-05-26T01:18:49.127Z,13.5
2016-05-26T01:18:59.161Z,13.6
2016-05-26T01:19:09.130Z,13.6
2016-05-26T01:19:19.146Z,13.6
2016-05-26T01:19:29.146Z,13.6
2016-05-26T01:19:39.161Z,13.5
2016-05-26T01:19:49.161Z,13.6
2016-05-26T01:19:59.180Z,13.5
2016-05-26T01:20:09.180Z,13.6
2016-05-26T01:20:19.180Z,13.6
2016-05-26T01:20:29.195Z,13.6
2016-05-26T01:20:39.195Z,13.7
2016-05-26T01:20:49.195Z,13.6
2016-05-26T01:20:59.214Z,13.5
2016-05-26T01:21:09.214Z,13.6
2016-05-26T01:21:19.230Z,13.6
2016-05-26T01:21:29.261Z,13.6
2016-05-26T01:21:39.245Z,13.6
2016-05-26T01:21:49.245Z,13.6
2016-05-26T01:21:59.247Z,13.7
2016-05-26T01:22:09.263Z,13.7
2016-05-26T01:22:19.263Z,13.7
2016-05-26T01:22:29.263Z,13.7
2016-05-26T01:22:39.279Z,13.7
2016-05-26T01:22:49.294Z,13.7
2016-05-26T01:22:59.296Z,13.7
2016-05-26T01:23:09.296Z,13.7
2016-05-26T01:23:19.296Z,13.6
2016-05-26T01:23:29.312Z,13.6
2016-05-26T01:23:39.312Z,13.7
2016-05-26T01:23:49.343Z,13.7
2016-05-26T01:23:59.316Z,13.7
2016-05-26T01:24:09.331Z,13.7
2016-05-26T01:24:19.378Z,13.6
2016-05-26T01:24:29.347Z,13.7
2016-05-26T01:24:39.347Z,13.7
2016-05-26T01:24:49.363Z,13.7
2016-05-26T01:24:59.365Z,13.7
2016-05-26T01:25:09.380Z,13.7
2016-05-26T01:25:19.380Z,13.7
2016-05-26T01:25:29.380Z,13.7
2016-05-26T01:25:39.396Z,13.7
2016-05-26T01:25:49.396Z,13.7
2016-05-26T01:25:59.415Z,13.7
2016-05-26T01:26:09.446Z,13.7
2016-05-26T01:26:19.446Z,13.7
2016-05-26T01:26:29.415Z,13.7
2016-05-26T01:26:39.430Z,13.6
2016-05-26T01:26:49.524Z,13.7
2016-05-26T01:26:59.432Z,13.7
2016-05-26T01:27:09.448Z,13.6
2016-05-26T01:27:19.463Z,13.7
2016-05-26T01:27:29.526Z,13.7
2016-05-26T01:27:39.463Z,13.7
2016-05-26T01:27:49.479Z,13.8
2016-05-26T01:27:59.529Z,13.7
2016-05-26T01:28:09.498Z,13.7
2016-05-26T01:28:19.498Z,13.6
2016-05-26T01:28:29.498Z,13.6
2016-05-26T01:28:39.498Z,13.6
2016-05-26T01:28:49.513Z,13.7
2016-05-26T01:28:59.516Z,13.6
2016-05-26T01:29:09.532Z,13.6
2016-05-26T01:29:19.532Z,13.7
2016-05-26T01:29:29.548Z,13.7
2016-05-26T01:29:39.563Z,13.6
2016-05-26T01:29:49.563Z,13.8
2016-05-26T01:29:59.565Z,13.7
2016-05-26T01:30:09.565Z,13.7
2016-05-26T01:30:19.581Z,13.7
2016-05-26T01:30:29.581Z,13.8
2016-05-26T01:30:39.581Z,13.7
2016-05-26T01:30:49.596Z,13.8
2016-05-26T01:30:59.600Z,13.7
2016-05-26T01:31:09.600Z,13.8
2016-05-26T01:31:19.616Z,13.8
2016-05-26T01:31:29.616Z,13.8
2016-05-26T01:31:39.632Z,13.7
2016-05-26T01:31:49.632Z,13.8
2016-05-26T01:31:59.634Z,13.8
2016-05-26T01:32:09.649Z,13.8
2016-05-26T01:32:19.681Z,13.7
2016-05-26T01:32:29.649Z,13.8
2016-05-26T01:32:39.727Z,13.8
2016-05-26T01:32:50.181Z,13.8
2016-05-26T01:32:59.684Z,13.8
2016-05-26T01:33:09.684Z,13.8
2016-05-26T01:33:19.715Z,13.8
2016-05-26T01:33:29.699Z,13.8
2016-05-26T01:33:39.699Z,13.9
2016-05-26T01:33:49.715Z,13.8
2016-05-26T01:33:59.795Z,13.7
2016-05-26T01:34:09.732Z,13.8
2016-05-26T01:34:19.732Z,13.8
2016-05-26T01:34:29.732Z,13.7
2016-05-26T01:34:39.748Z,13.7
2016-05-26T01:34:49.748Z,13.8
2016-05-26T01:34:59.782Z,13.8
2016-05-26T01:35:09.767Z,13.7
2016-05-26T01:35:19.782Z,13.8
2016-05-26T01:35:29.782Z,13.7
2016-05-26T01:35:39.782Z,13.8
2016-05-26T01:35:49.782Z,13.8
2016-05-26T01:35:59.801Z,13.8
2016-05-26T01:36:09.801Z,13.8
2016-05-26T01:36:19.817Z,13.8
2016-05-26T01:36:29.817Z,13.8
2016-05-26T01:36:39.817Z,13.8
2016-05-26T01:36:49.832Z,13.8
2016-05-26T01:36:59.835Z,13.8
2016-05-26T01:37:09.851Z,13.7
2016-05-26T01:37:19.851Z,13.7
2016-05-26T01:37:29.851Z,13.7
2016-05-26T01:37:39.866Z,13.7
2016-05-26T01:37:49.866Z,13.7
2016-05-26T01:37:59.885Z,13.8
2016-05-26T01:38:09.885Z,13.7
2016-05-26T01:38:19.885Z,13.8
2016-05-26T01:38:29.901Z,13.7
2016-05-26T01:38:39.901Z,13.7
2016-05-26T01:38:49.901Z,13.7
2016-05-26T01:38:59.950Z,13.7
2016-05-26T01:39:09.934Z,13.8
2016-05-26T01:39:19.918Z,13.8
2016-05-26T01:39:29.934Z,13.7
2016-05-26T01:39:39.934Z,13.8
2016-05-26T01:39:49.950Z,13.8
2016-05-26T01:39:59.953Z,13.8
2016-05-26T01:40:09.953Z,13.8
2016-05-26T01:40:19.968Z,13.8
2016-05-26T01:40:29.984Z,13.9
2016-05-26T01:40:39.984Z,13.8
2016-05-26T01:40:49.984Z,13.8
2016-05-26T01:40:59.986Z,13.8
2016-05-26T01:41:10.001Z,13.8
2016-05-26T01:41:20.001Z,13.8
2016-05-26T01:41:30.017Z,13.8
2016-05-26T01:41:40.017Z,13.8
2016-05-26T01:41:50.080Z,13.8
2016-05-26T01:42:00.036Z,13.8
2016-05-26T01:42:10.036Z,13.8
2016-05-26T01:42:20.051Z,13.8
2016-05-26T01:42:30.051Z,13.8
2016-05-26T01:42:40.051Z,13.9
2016-05-26T01:42:50.067Z,13.8
2016-05-26T01:43:00.070Z,13.8
2016-05-26T01:43:10.086Z,13.8
2016-05-26T01:43:20.086Z,13.8
2016-05-26T01:43:30.086Z,13.8
2016-05-26T01:43:40.101Z,13.9
2016-05-26T01:43:50.101Z,13.8
2016-05-26T01:44:00.119Z,13.8
2016-05-26T01:44:10.119Z,13.8
2016-05-26T01:44:20.150Z,13.8
2016-05-26T01:44:30.134Z,13.8
2016-05-26T01:44:40.134Z,13.8
2016-05-26T01:44:50.134Z,13.8
2016-05-26T01:45:00.153Z,13.8
2016-05-26T01:45:10.153Z,13.8
2016-05-26T01:45:20.169Z,13.9
2016-05-26T01:45:30.169Z,13.7
2016-05-26T01:45:40.169Z,13.8
2016-05-26T01:45:50.184Z,13.8
2016-05-26T01:46:00.186Z,13.9
2016-05-26T01:46:10.186Z,13.9
2016-05-26T01:46:20.202Z,13.9
2016-05-26T01:46:30.202Z,13.8
2016-05-26T01:46:40.218Z,13.8
2016-05-26T01:46:50.218Z,13.8
2016-05-26T01:47:00.267Z,13.8
2016-05-26T01:47:10.236Z,13.8
2016-05-26T01:47:20.236Z,13.9
2016-05-26T01:47:30.252Z,13.9
2016-05-26T01:47:40.627Z,14
2016-05-26T01:47:50.267Z,14
2016-05-26T01:48:00.270Z,13.9
2016-05-26T01:48:10.270Z,13.9
2016-05-26T01:48:20.286Z,13.9
2016-05-26T01:48:30.286Z,13.9
2016-05-26T01:48:40.286Z,13.9
2016-05-26T01:48:50.302Z,13.9
2016-05-26T01:49:00.366Z,13.9
2016-05-26T01:49:10.319Z,13.9
2016-05-26T01:49:20.319Z,13.9
2016-05-26T01:49:30.319Z,13.9
2016-05-26T01:49:40.335Z,13.9
2016-05-26T01:49:50.335Z,13.9
2016-05-26T01:50:00.338Z,13.9
2016-05-26T01:50:10.354Z,13.9
2016-05-26T01:50:20.354Z,13.9
2016-05-26T01:50:30.369Z,13.9
2016-05-26T01:50:40.369Z,13.9
2016-05-26T01:50:50.369Z,14
2016-05-26T01:51:00.388Z,13.9
2016-05-26T01:51:10.388Z,13.9
2016-05-26T01:51:20.403Z,13.9
2016-05-26T01:51:30.403Z,14
2016-05-26T01:51:40.403Z,13.9
2016-05-26T01:51:50.419Z,14
2016-05-26T01:52:00.422Z,14
2016-05-26T01:52:10.438Z,14
2016-05-26T01:52:20.438Z,14
2016-05-26T01:52:30.453Z,14
2016-05-26T01:52:40.469Z,14
2016-05-26T01:52:50.469Z,14.1
2016-05-26T01:53:00.456Z,14
2016-05-26T01:53:10.472Z,14
2016-05-26T01:53:20.488Z,13.9
2016-05-26T01:53:30.488Z,14
2016-05-26T01:53:40.488Z,14.1
2016-05-26T01:53:50.503Z,14
2016-05-26T01:54:00.505Z,14
2016-05-26T01:54:10.505Z,14.1
2016-05-26T01:54:20.521Z,14.1
2016-05-26T01:54:30.536Z,14.1
2016-05-26T01:54:40.536Z,14.1
2016-05-26T01:54:50.536Z,14.1
2016-05-26T01:55:00.539Z,14.2
2016-05-26T01:55:10.571Z,14.1
2016-05-26T01:55:20.555Z,14.2
2016-05-26T01:55:30.571Z,14.1
2016-05-26T01:55:40.571Z,14.1
2016-05-26T01:55:50.571Z,14.1
2016-05-26T01:56:00.589Z,14.1
2016-05-26T01:56:10.589Z,14.2
2016-05-26T01:56:20.589Z,14.1
2016-05-26T01:56:30.605Z,14.1
2016-05-26T01:56:40.605Z,14.2
2016-05-26T01:56:50.621Z,14.1
2016-05-26T01:57:00.624Z,14.1
2016-05-26T01:57:10.624Z,14.1
2016-05-26T01:57:20.639Z,14.1
2016-05-26T01:57:30.639Z,14.1
2016-05-26T01:57:40.655Z,14.2
2016-05-26T01:57:50.655Z,14.1
2016-05-26T01:58:00.657Z,14.1
2016-05-26T01:58:10.672Z,14.1
2016-05-26T01:58:20.672Z,14.1
2016-05-26T01:58:30.672Z,14.1
2016-05-26T01:58:40.688Z,14
2016-05-26T01:58:50.688Z,14.1
2016-05-26T01:59:00.707Z,14
2016-05-26T01:59:10.707Z,14.1
2016-05-26T01:59:20.707Z,14.1
2016-05-26T01:59:30.754Z,14
2016-05-26T01:59:40.722Z,14.1
2016-05-26T01:59:50.722Z,14
2016-05-26T02:00:00.740Z,14.1
2016-05-26T02:00:10.756Z,14.1
2016-05-26T02:00:20.756Z,14.1
2016-05-26T02:00:30.756Z,14.1
2016-05-26T02:00:40.771Z,14.1
2016-05-26T02:00:50.771Z,14.1
2016-05-26T02:01:00.774Z,14
2016-05-26T02:01:10.790Z,14
2016-05-26T02:01:20.790Z,14
2016-05-26T02:01:30.790Z,14
2016-05-26T02:01:40.805Z,14
2016-05-26T02:01:50.805Z,14.1
2016-05-26T02:02:00.824Z,14.1
2016-05-26T02:02:10.824Z,14.1
2016-05-26T02:02:20.824Z,13.9
2016-05-26T02:02:30.840Z,13.9
2016-05-26T02:02:40.855Z,13.9
2016-05-26T02:02:51.152Z,13.9
2016-05-26T02:03:00.857Z,14.1
2016-05-26T02:03:10.857Z,14
2016-05-26T02:03:20.873Z,13.9
2016-05-26T02:03:30.873Z,13.9
2016-05-26T02:03:40.889Z,14
2016-05-26T02:03:50.889Z,14
2016-05-26T02:04:00.892Z,14
2016-05-26T02:04:10.923Z,13.9
2016-05-26T02:04:20.907Z,14.1
2016-05-26T02:04:31.313Z,14
2016-05-26T02:04:40.938Z,14
2016-05-26T02:04:50.923Z,14.1
2016-05-26T02:05:00.940Z,14.1
2016-05-26T02:05:10.940Z,14
2016-05-26T02:05:20.940Z,14
2016-05-26T02:05:30.972Z,14
2016-05-26T02:05:40.956Z,14.1
2016-05-26T02:05:50.972Z,14.1
2016-05-26T02:06:00.976Z,14
2016-05-26T02:06:10.991Z,14.1
2016-05-26T02:06:20.991Z,14.1
2016-05-26T02:06:30.991Z,14.2
2016-05-26T02:06:41.007Z,14.1
2016-05-26T02:06:51.007Z,14.1
2016-05-26T02:07:01.025Z,14.2
2016-05-26T02:07:11.025Z,14.1
2016-05-26T02:07:21.025Z,14.1
2016-05-26T02:07:31.040Z,14.1
2016-05-26T02:07:41.040Z,14.1
2016-05-26T02:07:51.056Z,14.1
2016-05-26T02:08:01.059Z,14
2016-05-26T02:08:11.059Z,14
2016-05-26T02:08:21.074Z,14
2016-05-26T02:08:31.090Z,14
2016-05-26T02:08:41.090Z,14
2016-05-26T02:08:51.090Z,14
2016-05-26T02:09:01.092Z,14
2016-05-26T02:09:11.108Z,14.1
2016-05-26T02:09:21.108Z,13.9
2016-05-26T02:09:31.108Z,14
2016-05-26T02:09:41.123Z,14
2016-05-26T02:09:51.123Z,14.1
2016-05-26T02:10:01.142Z,14.1
2016-05-26T02:10:11.142Z,14.1
2016-05-26T02:10:21.142Z,14.1
2016-05-26T02:10:31.158Z,14.1
2016-05-26T02:10:41.158Z,14.1
2016-05-26T02:10:51.173Z,14
2016-05-26T02:11:01.176Z,14
2016-05-26T02:11:11.176Z,14
2016-05-26T02:11:21.192Z,14
2016-05-26T02:11:31.192Z,14
2016-05-26T02:11:41.207Z,14.1
2016-05-26T02:11:51.207Z,14.1
2016-05-26T02:12:01.209Z,14
2016-05-26T02:12:11.209Z,14.1
2016-05-26T02:12:21.225Z,14.1
2016-05-26T02:12:31.241Z,14
2016-05-26T02:12:41.241Z,14.1
2016-05-26T02:12:51.241Z,14
2016-05-26T02:13:01.260Z,14
2016-05-26T02:13:11.260Z,14
2016-05-26T02:13:21.276Z,14
2016-05-26T02:13:31.276Z,14
2016-05-26T02:13:41.276Z,14
2016-05-26T02:13:51.276Z,14
2016-05-26T02:14:01.294Z,14.1
2016-05-26T02:14:11.294Z,14.1
2016-05-26T02:14:21.325Z,13.9
2016-05-26T02:14:31.309Z,13.9